Time;durP1;ratioP1;P1;durP2;ratioP2;P2;SDS_P1;SDS_P2;PMS_P1;PMS_P2;Temp;Humidity;BMP_temperature;BMP_pressure;BME280_temperature;BME280_humidity;BME280_pressure;Samples;Min_cycle;Max_cycle;Signal;HPM_P1;HPM_P2
2022/09/10 00:02:00;;;;;;;;;;;13.90;99.90;;;;;;5074479;28;19915;-76
2022/09/10 00:04:26;;;;;;;;;;;13.90;99.90;;;;;;5074495;28;19909;-76
2022/09/10 00:06:52;;;;;;;;;;;13.90;99.90;;;;;;5074844;28;20006;-76
2022/09/10 00:09:18;;;;;;;;;;;13.90;99.90;;;;;;5075327;28;20427;-76
2022/09/10 00:11:45;;;;;;;;;;;13.90;99.90;;;;;;5073938;28;19964;-77
2022/09/10 00:14:14;;;;;;;;;;;13.80;99.90;;;;;;5075122;28;19912;-77
2022/09/10 00:16:39;;;;;;;;;;;13.80;99.90;;;;;;5074691;28;20061;-76
2022/09/10 00:19:05;;;;;;;;;;;13.70;99.90;;;;;;5073105;28;20375;-76
2022/09/10 00:21:31;;;;;;;;;;;13.70;99.90;;;;;;5074384;28;19915;-76
2022/09/10 00:23:57;;;;;;;;;;;13.70;99.90;;;;;;5074017;28;19908;-77
2022/09/10 00:26:24;;;;;;;;;;;13.70;99.90;;;;;;5072912;28;19920;-75
2022/09/10 00:28:51;;;;;;;;;;;13.60;99.90;;;;;;5074332;28;19936;-76
2022/09/10 00:31:18;;;;;;;;;;;13.60;99.90;;;;;;5074250;28;19962;-76
2022/09/10 00:33:43;;;;;;;;;;;13.60;99.90;;;;;;5073945;28;19952;-75
2022/09/10 00:36:45;;;;;;;;;;;13.60;99.90;;;;;;5074372;28;19956;-76
2022/09/10 00:39:15;;;;;;;;;;;13.60;99.90;;;;;;5071848;28;19908;-76
2022/09/10 00:41:42;;;;;;;;;;;13.50;99.90;;;;;;5068469;28;19995;-75
2022/09/10 00:44:27;;;;;;;;;;;13.40;99.90;;;;;;5073825;28;19935;-76
2022/09/10 00:46:53;;;;;;;;;;;13.40;99.90;;;;;;5074291;28;19952;-75
2022/09/10 00:49:21;;;;;;;;;;;13.40;99.90;;;;;;5074356;28;19913;-76
2022/09/10 00:51:49;;;;;;;;;;;13.40;99.90;;;;;;5073160;28;19987;-75
2022/09/10 00:54:17;;;;;;;;;;;13.30;99.90;;;;;;5073770;28;19916;-76
2022/09/10 00:56:44;;;;;;;;;;;13.30;99.90;;;;;;5072884;28;19908;-75
2022/09/10 00:59:10;;;;;;;;;;;13.20;99.90;;;;;;5073503;28;20281;-77
2022/09/10 01:01:37;;;;;;;;;;;13.20;99.90;;;;;;5072960;28;19959;-74
2022/09/10 01:04:04;;;;;;;;;;;13.10;99.90;;;;;;5072449;28;20405;-75
2022/09/10 01:06:30;;;;;;;;;;;13.10;99.90;;;;;;5073189;28;20004;-74
2022/09/10 01:08:56;;;;;;;;;;;13.10;99.90;;;;;;5073586;28;20015;-75
2022/09/10 01:11:25;;;;;;;;;;;13.10;99.90;;;;;;5073680;28;19909;-76
2022/09/10 01:13:51;;;;;;;;;;;13.10;99.90;;;;;;5073099;28;19908;-75
2022/09/10 01:16:49;;;;;;;;;;;13.10;99.90;;;;;;5073459;28;19953;-75
2022/09/10 01:19:33;;;;;;;;;;;13.00;99.90;;;;;;5072095;28;19908;-75
2022/09/10 01:22:16;;;;;;;;;;;13.00;99.90;;;;;;5073343;28;19908;-75
2022/09/10 01:25:05;;;;;;;;;;;13.00;99.90;;;;;;5072521;28;19948;-75
2022/09/10 01:27:31;;;;;;;;;;;12.90;99.90;;;;;;5072177;28;19917;-75
2022/09/10 01:30:06;;;;;;;;;;;12.90;99.90;;;;;;5073253;28;19915;-75
2022/09/10 01:32:31;;;;;;;;;;;12.90;99.90;;;;;;5072472;28;19915;-74
2022/09/10 01:35:03;;;;;;;;;;;12.90;99.90;;;;;;5071976;28;19912;-76
2022/09/10 01:37:29;;;;;;;;;;;12.80;99.90;;;;;;5073397;28;20349;-75
2022/09/10 01:39:56;;;;;;;;;;;12.80;99.90;;;;;;5073238;28;19909;-75
2022/09/10 01:42:25;;;;;;;;;;;12.80;99.90;;;;;;5073481;28;19909;-75
2022/09/10 01:44:52;;;;;;;;;;;12.70;99.90;;;;;;5072440;28;19924;-75
2022/09/10 01:47:25;;;;;;;;;;;12.70;99.90;;;;;;5073121;28;19924;-75
2022/09/10 01:50:02;;;;;;;;;;;12.70;99.90;;;;;;5073170;28;20097;-75
2022/09/10 01:52:37;;;;;;;;;;;12.70;99.90;;;;;;5073173;28;19913;-75
2022/09/10 01:55:02;;;;;;;;;;;12.70;99.90;;;;;;5073797;28;20054;-76
2022/09/10 01:57:54;;;;;;;;;;;12.70;99.90;;;;;;5072836;28;20395;-75
2022/09/10 02:00:21;;;;;;;;;;;12.70;99.90;;;;;;5070463;28;19916;-75
2022/09/10 02:03:04;;;;;;;;;;;12.70;99.90;;;;;;5072737;28;20001;-75
2022/09/10 02:05:34;;;;;;;;;;;12.60;99.90;;;;;;5071913;28;20373;-75
2022/09/10 02:08:01;;;;;;;;;;;12.60;99.90;;;;;;5073188;28;19927;-76
2022/09/10 02:10:27;;;;;;;;;;;12.60;99.90;;;;;;5076309;28;19912;-76
2022/09/10 02:12:52;;;;;;;;;;;12.50;99.90;;;;;;5076182;28;20383;-75
2022/09/10 02:15:20;;;;;;;;;;;12.50;99.90;;;;;;5076152;28;19909;-75
2022/09/10 02:17:48;;;;;;;;;;;12.50;99.90;;;;;;5076402;28;19962;-75
2022/09/10 02:20:14;;;;;;;;;;;12.50;99.90;;;;;;5076718;28;20007;-75
2022/09/10 02:22:43;;;;;;;;;;;12.50;99.90;;;;;;5075820;28;19913;-75
2022/09/10 02:25:09;;;;;;;;;;;12.40;99.90;;;;;;5076882;28;19909;-75
2022/09/10 02:27:34;;;;;;;;;;;12.40;99.90;;;;;;5075740;28;19912;-75
2022/09/10 02:30:00;;;;;;;;;;;12.30;99.90;;;;;;5076247;28;19916;-75
2022/09/10 02:32:26;;;;;;;;;;;12.30;99.90;;;;;;5076137;28;19908;-75
2022/09/10 02:34:51;;;;;;;;;;;12.30;99.90;;;;;;5075865;28;20041;-75
2022/09/10 02:37:18;;;;;;;;;;;12.30;99.90;;;;;;5076250;28;19920;-75
2022/09/10 02:39:45;;;;;;;;;;;12.30;99.90;;;;;;5075989;28;19908;-75
2022/09/10 02:42:13;;;;;;;;;;;12.20;99.90;;;;;;5076243;28;20343;-75
2022/09/10 02:44:38;;;;;;;;;;;12.20;99.90;;;;;;5075153;28;19943;-75
2022/09/10 02:47:05;;;;;;;;;;;12.10;99.90;;;;;;5074784;28;20345;-75
2022/09/10 02:49:30;;;;;;;;;;;12.20;99.90;;;;;;5076115;28;19962;-74
2022/09/10 02:51:56;;;;;;;;;;;12.20;99.90;;;;;;5075705;28;20312;-74
2022/09/10 02:54:21;;;;;;;;;;;12.20;99.90;;;;;;5074710;28;19909;-75
2022/09/10 02:56:48;;;;;;;;;;;12.30;99.90;;;;;;5075256;28;20015;-75
2022/09/10 02:59:15;;;;;;;;;;;12.20;99.90;;;;;;5076035;28;19909;-75
2022/09/10 03:01:40;;;;;;;;;;;12.10;99.90;;;;;;5075295;28;19931;-75
2022/09/10 03:04:06;;;;;;;;;;;12.00;99.90;;;;;;5075762;28;20350;-75
2022/09/10 03:06:32;;;;;;;;;;;11.90;99.90;;;;;;5074353;28;19920;-75
2022/09/10 03:08:58;;;;;;;;;;;11.90;99.90;;;;;;5074892;28;19916;-75
2022/09/10 03:11:26;;;;;;;;;;;12.00;99.90;;;;;;5075310;28;19962;-75
2022/09/10 03:13:51;;;;;;;;;;;11.90;99.90;;;;;;5075499;28;19912;-74
2022/09/10 03:16:17;;;;;;;;;;;11.90;99.90;;;;;;5075645;28;19912;-75
2022/09/10 03:18:43;;;;;;;;;;;11.90;99.90;;;;;;5075289;28;19958;-75
2022/09/10 03:21:11;;;;;;;;;;;11.90;99.90;;;;;;5074728;28;20337;-75
2022/09/10 03:23:39;;;;;;;;;;;11.80;99.90;;;;;;5074890;28;20268;-73
2022/09/10 03:26:04;;;;;;;;;;;11.80;99.90;;;;;;5075442;28;19916;-75
2022/09/10 03:28:31;;;;;;;;;;;11.70;99.90;;;;;;5075416;28;20340;-74
2022/09/10 03:30:57;;;;;;;;;;;11.70;99.90;;;;;;5074634;28;19978;-74
2022/09/10 03:33:23;;;;;;;;;;;11.70;99.90;;;;;;5075255;28;20304;-75
2022/09/10 03:35:48;;;;;;;;;;;11.70;99.90;;;;;;5074740;28;20295;-75
2022/09/10 03:38:14;;;;;;;;;;;11.70;99.90;;;;;;5074946;28;20285;-74
2022/09/10 03:40:40;;;;;;;;;;;11.70;99.90;;;;;;5074577;28;19909;-74
2022/09/10 03:43:05;;;;;;;;;;;11.80;99.90;;;;;;5075121;28;19924;-75
2022/09/10 03:45:31;;;;;;;;;;;11.70;99.90;;;;;;5075005;28;19915;-75
2022/09/10 03:47:58;;;;;;;;;;;11.70;99.90;;;;;;5074513;28;19924;-75
2022/09/10 03:50:23;;;;;;;;;;;11.80;99.90;;;;;;5074595;28;19991;-75
2022/09/10 03:52:49;;;;;;;;;;;11.80;99.90;;;;;;5073128;28;19951;-74
2022/09/10 03:55:15;;;;;;;;;;;11.80;99.90;;;;;;5075029;28;19975;-74
2022/09/10 03:57:40;;;;;;;;;;;11.70;99.90;;;;;;5074352;28;20284;-74
2022/09/10 04:00:06;;;;;;;;;;;11.70;99.90;;;;;;5073535;28;19908;-74
2022/09/10 04:02:32;;;;;;;;;;;11.50;99.90;;;;;;5075143;28;19909;-75
2022/09/10 04:04:58;;;;;;;;;;;11.60;99.90;;;;;;5074395;28;19912;-75
2022/09/10 04:07:23;;;;;;;;;;;11.50;99.90;;;;;;5074687;28;20365;-74
2022/09/10 04:09:49;;;;;;;;;;;11.40;99.90;;;;;;5074026;28;19962;-75
2022/09/10 04:12:15;;;;;;;;;;;11.40;99.90;;;;;;5074449;28;19948;-75
2022/09/10 04:14:44;;;;;;;;;;;11.40;99.90;;;;;;5073954;28;19909;-74
2022/09/10 04:17:09;;;;;;;;;;;11.30;99.90;;;;;;5074356;28;19959;-74
2022/09/10 04:19:35;;;;;;;;;;;11.30;99.90;;;;;;5074347;28;19908;-75
2022/09/10 04:22:01;;;;;;;;;;;11.30;99.90;;;;;;5073754;28;19905;-75
2022/09/10 04:24:27;;;;;;;;;;;11.20;99.90;;;;;;5073840;28;20373;-75
2022/09/10 04:26:53;;;;;;;;;;;11.20;99.90;;;;;;5073512;28;19959;-74
2022/09/10 04:29:18;;;;;;;;;;;11.20;99.90;;;;;;5073817;28;20292;-75
2022/09/10 04:31:45;;;;;;;;;;;11.30;99.90;;;;;;5072895;28;20003;-75
2022/09/10 04:34:11;;;;;;;;;;;11.20;99.90;;;;;;5073628;28;19913;-75
2022/09/10 04:36:36;;;;;;;;;;;11.20;99.90;;;;;;5074225;28;20385;-75
2022/09/10 04:39:02;;;;;;;;;;;11.30;99.90;;;;;;5074107;28;20503;-75
2022/09/10 04:41:28;;;;;;;;;;;11.30;99.90;;;;;;5074090;28;20007;-75
2022/09/10 04:43:53;;;;;;;;;;;11.20;99.90;;;;;;5073080;28;20389;-75
2022/09/10 04:46:19;;;;;;;;;;;11.20;99.90;;;;;;5073692;28;19916;-75
2022/09/10 04:48:44;;;;;;;;;;;11.10;99.90;;;;;;5073204;28;20003;-74
2022/09/10 04:51:12;;;;;;;;;;;11.10;99.90;;;;;;5073759;28;20254;-74
2022/09/10 04:53:38;;;;;;;;;;;11.10;99.90;;;;;;5072350;28;19912;-75
2022/09/10 04:56:04;;;;;;;;;;;11.00;99.90;;;;;;5071891;28;20557;-75
2022/09/10 04:58:30;;;;;;;;;;;11.00;99.90;;;;;;5073370;28;19915;-75
2022/09/10 05:00:55;;;;;;;;;;;11.00;99.90;;;;;;5073087;28;19909;-74
2022/09/10 05:03:21;;;;;;;;;;;11.00;99.90;;;;;;5073723;28;19908;-74
2022/09/10 05:05:47;;;;;;;;;;;10.90;99.90;;;;;;5072948;28;19909;-75
2022/09/10 05:08:13;;;;;;;;;;;10.90;99.90;;;;;;5073441;28;19912;-74
2022/09/10 05:10:39;;;;;;;;;;;11.00;99.90;;;;;;5073280;28;20368;-75
2022/09/10 05:13:05;;;;;;;;;;;11.00;99.90;;;;;;5072619;28;19904;-75
2022/09/10 05:15:33;;;;;;;;;;;10.90;99.90;;;;;;5072859;28;19951;-74
2022/09/10 05:17:59;;;;;;;;;;;11.00;99.90;;;;;;5072570;28;19909;-75
2022/09/10 05:20:26;;;;;;;;;;;11.00;99.90;;;;;;5072065;28;20352;-75
2022/09/10 05:22:55;;;;;;;;;;;11.00;99.90;;;;;;5072890;28;20307;-75
2022/09/10 05:25:20;;;;;;;;;;;11.00;99.90;;;;;;5071693;28;20422;-74
2022/09/10 05:27:47;;;;;;;;;;;11.00;99.90;;;;;;5072746;28;19912;-74
2022/09/10 05:30:12;;;;;;;;;;;11.00;99.90;;;;;;5072926;28;19918;-74
2022/09/10 05:32:39;;;;;;;;;;;11.00;99.90;;;;;;5073175;28;20280;-75
2022/09/10 05:35:05;;;;;;;;;;;11.00;99.90;;;;;;5072540;28;19912;-75
2022/09/10 05:37:31;;;;;;;;;;;10.90;99.90;;;;;;5073075;28;19991;-76
2022/09/10 05:39:56;;;;;;;;;;;10.90;99.90;;;;;;5072856;28;19963;-75
2022/09/10 05:42:22;;;;;;;;;;;10.90;99.90;;;;;;5072743;28;19908;-76
2022/09/10 05:44:47;;;;;;;;;;;10.90;99.90;;;;;;5071689;28;19924;-75
2022/09/10 05:47:13;;;;;;;;;;;10.90;99.90;;;;;;5072812;28;19964;-75
2022/09/10 05:49:38;;;;;;;;;;;10.90;99.90;;;;;;5073311;28;19919;-74
2022/09/10 05:52:04;;;;;;;;;;;10.90;99.90;;;;;;5072029;28;19909;-74
2022/09/10 05:54:29;;;;;;;;;;;10.90;99.90;;;;;;5073265;28;19961;-75
2022/09/10 05:56:57;;;;;;;;;;;10.90;99.90;;;;;;5071973;28;19908;-74
2022/09/10 05:59:23;;;;;;;;;;;10.90;99.90;;;;;;5072427;28;19909;-74
2022/09/10 06:01:50;;;;;;;;;;;10.90;99.90;;;;;;5072391;28;19924;-74
2022/09/10 06:04:17;;;;;;;;;;;10.90;99.90;;;;;;5072704;28;19954;-74
2022/09/10 06:06:44;;;;;;;;;;;10.90;99.90;;;;;;5072412;28;19912;-75
2022/09/10 06:09:10;;;;;;;;;;;10.90;99.90;;;;;;5072109;28;19928;-75
2022/09/10 06:11:35;;;;;;;;;;;10.90;99.90;;;;;;5072375;28;19909;-74
2022/09/10 06:14:01;;;;;;;;;;;10.90;99.90;;;;;;5072307;28;19909;-73
2022/09/10 06:16:27;;;;;;;;;;;10.90;99.90;;;;;;5072902;28;19915;-74
2022/09/10 06:18:53;;;;;;;;;;;10.90;99.90;;;;;;5072204;28;20357;-74
2022/09/10 06:21:18;;;;;;;;;;;11.00;99.90;;;;;;5072690;28;20007;-74
2022/09/10 06:23:44;;;;;;;;;;;11.10;99.90;;;;;;5071961;28;20361;-74
2022/09/10 06:26:15;;;;;;;;;;;11.20;99.90;;;;;;5076904;28;19912;-74
2022/09/10 06:28:42;;;;;;;;;;;11.20;99.90;;;;;;5082004;28;20419;-74
2022/09/10 06:31:10;;;;;;;;;;;11.30;99.90;;;;;;5078301;28;19913;-74
2022/09/10 06:33:36;;;;;;;;;;;11.30;99.90;;;;;;5089664;28;19908;-74
2022/09/10 06:36:02;;;;;;;;;;;11.50;99.90;;;;;;5092034;28;19908;-73
2022/09/10 06:38:29;;;;;;;;;;;11.60;99.90;;;;;;5092731;28;19912;-74
2022/09/10 06:40:56;;;;;;;;;;;11.70;99.90;;;;;;5080606;28;19935;-76
2022/09/10 06:43:22;;;;;;;;;;;11.80;99.90;;;;;;5081634;28;19965;-75
2022/09/10 06:45:52;;;;;;;;;;;11.90;99.90;;;;;;5081769;28;19912;-76
2022/09/10 06:48:18;;;;;;;;;;;12.00;99.90;;;;;;5084119;28;19927;-75
2022/09/10 06:50:54;;;;;;;;;;;12.20;99.90;;;;;;5125811;28;19914;-75
2022/09/10 06:53:23;;;;;;;;;;;12.30;99.90;;;;;;5092425;28;19922;-75
2022/09/10 06:55:49;;;;;;;;;;;12.30;99.90;;;;;;5093456;28;19916;-75
2022/09/10 06:58:16;;;;;;;;;;;12.40;99.90;;;;;;5096096;28;19912;-76
2022/09/10 07:00:42;;;;;;;;;;;12.50;99.90;;;;;;5095005;28;19908;-75
2022/09/10 07:03:08;;;;;;;;;;;12.60;99.90;;;;;;5095280;28;19957;-75
2022/09/10 07:05:34;;;;;;;;;;;12.70;99.90;;;;;;5095746;28;20379;-75
2022/09/10 07:08:00;;;;;;;;;;;12.90;99.90;;;;;;5095533;28;19912;-75
2022/09/10 07:10:27;;;;;;;;;;;13.10;99.90;;;;;;5094722;28;19919;-75
2022/09/10 07:12:53;;;;;;;;;;;13.20;99.90;;;;;;5094412;28;20010;-75
2022/09/10 07:15:18;;;;;;;;;;;13.30;99.90;;;;;;5095846;28;19994;-75
2022/09/10 07:17:44;;;;;;;;;;;13.50;99.90;;;;;;5094684;28;19908;-75
2022/09/10 07:20:10;;;;;;;;;;;13.60;99.90;;;;;;5095387;28;19916;-75
2022/09/10 07:22:36;;;;;;;;;;;13.70;99.90;;;;;;5090001;28;19921;-75
2022/09/10 07:25:02;;;;;;;;;;;13.80;99.90;;;;;;5084000;28;19909;-75
2022/09/10 07:27:28;;;;;;;;;;;13.90;99.90;;;;;;5084436;28;19923;-75
2022/09/10 07:29:53;;;;;;;;;;;14.00;99.90;;;;;;5080321;28;20025;-74
2022/09/10 07:32:19;;;;;;;;;;;14.10;99.90;;;;;;5074786;28;19909;-76
2022/09/10 07:34:46;;;;;;;;;;;14.30;99.90;;;;;;5075013;28;20393;-76
2022/09/10 07:37:14;;;;;;;;;;;14.30;99.90;;;;;;5074921;28;19966;-75
2022/09/10 07:39:40;;;;;;;;;;;14.40;99.90;;;;;;5075129;28;19975;-76
2022/09/10 07:42:05;;;;;;;;;;;14.40;99.90;;;;;;5074490;28;19912;-76
2022/09/10 07:44:31;;;;;;;;;;;14.50;99.90;;;;;;5075102;28;19920;-75
2022/09/10 07:46:58;;;;;;;;;;;14.50;99.90;;;;;;5074493;28;19913;-75
2022/09/10 07:49:25;;;;;;;;;;;14.60;99.90;;;;;;5074861;28;19919;-75
2022/09/10 07:51:52;;;;;;;;;;;14.70;99.90;;;;;;5075199;28;19954;-76
2022/09/10 07:54:18;;;;;;;;;;;14.70;99.90;;;;;;5074325;28;19951;-75
2022/09/10 07:56:44;;;;;;;;;;;14.90;99.90;;;;;;5074435;28;19956;-76
2022/09/10 07:59:10;;;;;;;;;;;15.00;99.90;;;;;;5073237;28;20007;-76
2022/09/10 08:01:36;;;;;;;;;;;15.10;99.90;;;;;;5074917;28;19908;-76
2022/09/10 08:04:02;;;;;;;;;;;15.10;99.90;;;;;;5074175;28;19916;-76
2022/09/10 08:06:28;;;;;;;;;;;15.10;99.90;;;;;;5073265;28;19926;-76
2022/09/10 08:08:54;;;;;;;;;;;15.20;99.90;;;;;;5074488;28;19912;-74
2022/09/10 08:11:20;;;;;;;;;;;15.20;99.90;;;;;;5068292;28;20054;-75
2022/09/10 08:13:50;;;;;;;;;;;15.40;99.90;;;;;;5066109;28;19916;-76
2022/09/10 08:16:17;;;;;;;;;;;15.30;99.90;;;;;;5073882;28;19913;-76
2022/09/10 08:18:43;;;;;;;;;;;15.40;99.90;;;;;;5074069;28;19912;-75
2022/09/10 08:21:09;;;;;;;;;;;15.40;99.90;;;;;;5072752;28;19970;-75
2022/09/10 08:23:36;;;;;;;;;;;15.40;99.90;;;;;;5074522;28;19935;-76
2022/09/10 08:26:04;;;;;;;;;;;15.50;99.90;;;;;;5072433;28;19987;-75
2022/09/10 08:28:29;;;;;;;;;;;15.60;99.90;;;;;;5073954;28;19916;-76
2022/09/10 08:30:55;;;;;;;;;;;15.70;99.90;;;;;;5074262;28;19954;-76
2022/09/10 08:33:21;;;;;;;;;;;15.80;99.90;;;;;;5073432;28;19916;-76
2022/09/10 08:36:07;;;;;;;;;;;15.80;99.90;;;;;;5073883;28;19908;-76
2022/09/10 08:38:42;;;;;;;;;;;15.80;99.90;;;;;;5072128;28;19915;-76
2022/09/10 08:41:12;;;;;;;;;;;15.90;99.90;;;;;;5073608;28;19927;-77
2022/09/10 08:43:48;;;;;;;;;;;16.00;99.90;;;;;;5073777;28;19946;-76
2022/09/10 08:46:24;;;;;;;;;;;16.10;99.90;;;;;;5073211;28;19963;-75
2022/09/10 08:48:53;;;;;;;;;;;16.20;99.90;;;;;;5073786;28;19912;-76
2022/09/10 08:51:26;;;;;;;;;;;16.40;99.90;;;;;;5072941;28;20495;-75
2022/09/10 08:53:58;;;;;;;;;;;16.50;99.90;;;;;;5073767;28;20354;-76
2022/09/10 08:56:25;;;;;;;;;;;16.40;99.90;;;;;;5073551;28;19909;-76
2022/09/10 08:59:01;;;;;;;;;;;16.60;99.90;;;;;;5072982;28;19934;-76
2022/09/10 09:01:39;;;;;;;;;;;16.80;99.90;;;;;;5073682;28;19912;-77
2022/09/10 09:04:10;;;;;;;;;;;16.90;99.90;;;;;;5073152;28;19962;-76
2022/09/10 09:06:41;;;;;;;;;;;17.00;99.90;;;;;;5073374;28;19916;-76
2022/09/10 09:09:08;;;;;;;;;;;16.80;99.90;;;;;;5073308;28;20007;-76
2022/09/10 09:11:40;;;;;;;;;;;16.70;99.90;;;;;;5073308;28;20428;-76
2022/09/10 09:14:06;;;;;;;;;;;16.60;99.90;;;;;;5072631;28;19909;-76
2022/09/10 09:16:34;;;;;;;;;;;16.50;99.90;;;;;;5073216;28;20353;-76
2022/09/10 09:19:06;;;;;;;;;;;16.60;99.90;;;;;;5072707;28;20062;-76
2022/09/10 09:21:51;;;;;;;;;;;16.50;99.90;;;;;;5073138;28;19912;-77
2022/09/10 09:24:43;;;;;;;;;;;16.60;99.90;;;;;;5072965;28;19915;-76
2022/09/10 09:27:16;;;;;;;;;;;16.70;99.90;;;;;;5071774;28;19916;-77
2022/09/10 09:29:54;;;;;;;;;;;16.90;99.90;;;;;;5072800;28;20009;-77
2022/09/10 09:32:21;;;;;;;;;;;17.00;99.90;;;;;;5072674;28;19954;-76
2022/09/10 09:34:53;;;;;;;;;;;17.30;99.90;;;;;;5073124;28;20013;-76
2022/09/10 09:37:21;;;;;;;;;;;17.40;99.90;;;;;;5072252;28;20392;-75
2022/09/10 09:39:51;;;;;;;;;;;17.50;99.90;;;;;;5073120;28;19908;-77
2022/09/10 09:42:23;;;;;;;;;;;17.50;99.90;;;;;;5072456;28;19909;-76
2022/09/10 09:44:49;;;;;;;;;;;17.60;99.90;;;;;;5073061;28;19995;-75
2022/09/10 09:47:14;;;;;;;;;;;17.50;99.90;;;;;;5072452;28;19916;-76
2022/09/10 09:49:40;;;;;;;;;;;17.50;99.90;;;;;;5072896;28;19948;-76
2022/09/10 09:52:15;;;;;;;;;;;17.50;99.90;;;;;;5072292;28;19908;-75
2022/09/10 09:54:44;;;;;;;;;;;17.50;99.90;;;;;;5073223;28;20336;-76
2022/09/10 09:57:18;;;;;;;;;;;17.50;99.90;;;;;;5072011;28;19956;-75
2022/09/10 09:59:43;;;;;;;;;;;17.50;99.90;;;;;;5072593;28;20361;-76
2022/09/10 10:02:11;;;;;;;;;;;17.40;99.90;;;;;;5071933;28;20003;-76
2022/09/10 10:04:39;;;;;;;;;;;17.40;99.90;;;;;;5071171;28;19999;-76
2022/09/10 10:07:05;;;;;;;;;;;17.40;99.90;;;;;;5072019;28;20358;-76
2022/09/10 10:09:32;;;;;;;;;;;17.60;99.90;;;;;;5072424;28;19939;-76
2022/09/10 10:11:58;;;;;;;;;;;17.60;99.90;;;;;;5072799;28;19985;-76
2022/09/10 10:14:24;;;;;;;;;;;17.70;99.90;;;;;;5070867;28;19912;-76
2022/09/10 10:16:51;;;;;;;;;;;17.80;99.90;;;;;;5072723;28;19931;-76
2022/09/10 10:19:33;;;;;;;;;;;17.80;99.90;;;;;;5072369;28;19908;-76
2022/09/10 10:22:15;;;;;;;;;;;17.90;99.90;;;;;;5072338;28;19912;-76
2022/09/10 10:24:42;;;;;;;;;;;17.70;99.90;;;;;;5072616;28;20007;-75
2022/09/10 10:27:24;;;;;;;;;;;17.80;99.90;;;;;;5070767;28;20002;-74
2022/09/10 10:30:10;;;;;;;;;;;17.80;99.90;;;;;;5072227;28;20369;-76
2022/09/10 10:32:40;;;;;;;;;;;17.90;99.90;;;;;;5075380;28;19908;-76
2022/09/10 10:35:06;;;;;;;;;;;18.00;99.90;;;;;;5075929;28;19916;-75
2022/09/10 10:37:52;;;;;;;;;;;18.10;99.90;;;;;;5076018;28;19908;-76
2022/09/10 10:40:25;;;;;;;;;;;18.20;99.90;;;;;;5075705;28;19963;-76
2022/09/10 10:42:50;;;;;;;;;;;18.30;99.90;;;;;;5075982;28;19908;-75
2022/09/10 10:45:31;;;;;;;;;;;18.20;99.90;;;;;;5075614;28;19915;-75
2022/09/10 10:48:15;;;;;;;;;;;18.30;99.90;;;;;;5074900;28;19962;-76
2022/09/10 10:50:41;;;;;;;;;;;18.30;99.90;;;;;;5076023;28;19918;-76
2022/09/10 10:53:26;;;;;;;;;;;18.30;99.90;;;;;;5075689;28;19999;-74
2022/09/10 10:55:51;;;;;;;;;;;18.40;99.90;;;;;;5076307;28;19935;-76
2022/09/10 10:58:43;;;;;;;;;;;18.50;99.90;;;;;;5075444;28;20361;-77
2022/09/10 11:01:24;;;;;;;;;;;18.60;99.90;;;;;;5065828;28;20474;-75
2022/09/10 11:03:59;;;;;;;;;;;18.50;99.90;;;;;;5075533;28;19908;-76
2022/09/10 11:06:28;;;;;;;;;;;18.50;99.90;;;;;;5075334;28;19967;-77
2022/09/10 11:09:01;;;;;;;;;;;18.30;99.90;;;;;;5076180;28;19913;-77
2022/09/10 11:11:30;;;;;;;;;;;18.30;99.90;;;;;;5073905;28;19920;-76
2022/09/10 11:14:15;;;;;;;;;;;18.10;99.90;;;;;;5075782;28;19912;-77
2022/09/10 11:16:44;;;;;;;;;;;18.20;99.90;;;;;;5075595;28;20378;-77
2022/09/10 11:19:34;;;;;;;;;;;18.00;99.90;;;;;;5074951;28;19909;-75
2022/09/10 11:22:08;;;;;;;;;;;17.90;99.90;;;;;;5075332;28;20384;-77
2022/09/10 11:24:53;;;;;;;;;;;18.10;99.90;;;;;;5074962;28;19909;-76
2022/09/10 11:27:28;;;;;;;;;;;18.10;99.90;;;;;;5073583;28;20019;-76
2022/09/10 11:30:02;;;;;;;;;;;18.10;99.90;;;;;;5075117;28;19917;-77
2022/09/10 11:32:46;;;;;;;;;;;18.10;99.90;;;;;;5074737;28;19991;-76
2022/09/10 11:35:15;;;;;;;;;;;18.20;99.90;;;;;;5074731;28;19909;-76
2022/09/10 11:37:52;;;;;;;;;;;18.20;99.90;;;;;;5075345;28;20370;-76
2022/09/10 11:40:21;;;;;;;;;;;18.00;99.90;;;;;;5073405;28;19919;-76
2022/09/10 11:42:51;;;;;;;;;;;18.10;99.90;;;;;;5074688;28;19908;-77
2022/09/10 11:45:18;;;;;;;;;;;18.10;99.90;;;;;;5074629;28;19974;-75
2022/09/10 11:47:46;;;;;;;;;;;18.20;99.90;;;;;;5073781;28;19913;-76
2022/09/10 11:50:24;;;;;;;;;;;18.20;99.90;;;;;;5074698;28;19912;-75
2022/09/10 11:52:52;;;;;;;;;;;18.20;99.90;;;;;;5075069;28;20273;-76
2022/09/10 11:55:18;;;;;;;;;;;18.10;99.90;;;;;;5074216;28;19916;-76
2022/09/10 11:58:05;;;;;;;;;;;18.00;99.90;;;;;;5074886;28;19916;-76
2022/09/10 12:00:35;;;;;;;;;;;18.00;99.90;;;;;;5074391;28;19912;-76
2022/09/10 12:03:03;;;;;;;;;;;18.00;99.90;;;;;;5074881;28;20353;-77
2022/09/10 12:05:45;;;;;;;;;;;18.00;99.90;;;;;;5072760;28;20385;-76
2022/09/10 12:08:19;;;;;;;;;;;17.90;99.90;;;;;;5074560;28;19918;-76
2022/09/10 12:11:03;;;;;;;;;;;18.00;99.90;;;;;;5074724;28;20015;-76
2022/09/10 12:13:32;;;;;;;;;;;18.00;99.90;;;;;;5073874;28;19909;-77
2022/09/10 12:16:01;;;;;;;;;;;18.10;99.90;;;;;;5074560;28;19915;-76
2022/09/10 12:18:35;;;;;;;;;;;18.30;99.90;;;;;;5073924;28;19913;-77
2022/09/10 12:21:06;;;;;;;;;;;18.50;99.90;;;;;;5074477;28;19955;-77
2022/09/10 12:23:34;;;;;;;;;;;18.60;99.90;;;;;;5073988;28;19916;-77
2022/09/10 12:26:21;;;;;;;;;;;18.80;99.90;;;;;;5072786;28;19915;-77
2022/09/10 12:28:52;;;;;;;;;;;18.90;99.90;;;;;;5074970;28;19919;-78
2022/09/10 12:31:21;;;;;;;;;;;18.80;99.90;;;;;;5072447;28;19912;-77
2022/09/10 12:33:47;;;;;;;;;;;18.70;99.90;;;;;;5074224;28;19909;-76
2022/09/10 12:36:13;;;;;;;;;;;18.70;99.90;;;;;;5073895;28;19974;-77
2022/09/10 12:38:48;;;;;;;;;;;18.60;99.90;;;;;;5073919;28;19915;-77
2022/09/10 12:41:23;;;;;;;;;;;18.70;99.90;;;;;;5073689;28;19908;-75
2022/09/10 12:43:53;;;;;;;;;;;18.80;99.90;;;;;;5073658;28;20011;-77
2022/09/10 12:46:21;;;;;;;;;;;18.80;99.90;;;;;;5073054;28;20054;-77
2022/09/10 12:49:07;;;;;;;;;;;18.80;99.90;;;;;;5073812;28;19912;-77
2022/09/10 12:51:42;;;;;;;;;;;18.80;99.90;;;;;;5067475;28;20283;-77
2022/09/10 12:54:10;;;;;;;;;;;18.70;99.90;;;;;;5073365;28;19956;-77
2022/09/10 12:56:45;;;;;;;;;;;18.60;99.90;;;;;;5073505;28;19916;-77
2022/09/10 12:59:18;;;;;;;;;;;18.60;99.90;;;;;;5073544;28;19908;-77
2022/09/10 13:01:46;;;;;;;;;;;18.70;99.90;;;;;;5073911;28;19909;-76
2022/09/10 13:04:35;;;;;;;;;;;18.90;99.90;;;;;;5073935;28;19916;-77
2022/09/10 13:07:18;;;;;;;;;;;19.00;99.90;;;;;;5073213;28;19919;-77
2022/09/10 13:09:44;;;;;;;;;;;19.00;99.90;;;;;;5073701;28;19912;-77
2022/09/10 13:12:18;;;;;;;;;;;18.80;99.90;;;;;;5073401;28;19999;-77
2022/09/10 13:14:45;;;;;;;;;;;18.80;99.90;;;;;;5073279;28;19908;-77
2022/09/10 13:17:35;;;;;;;;;;;18.90;99.90;;;;;;5073445;28;20331;-77
2022/09/10 13:20:12;;;;;;;;;;;19.00;99.90;;;;;;5073101;28;19910;-77
2022/09/10 13:22:54;;;;;;;;;;;19.00;99.90;;;;;;5072907;28;19908;-77
2022/09/10 13:25:25;;;;;;;;;;;18.90;99.90;;;;;;5072521;28;19915;-76
2022/09/10 13:27:51;;;;;;;;;;;19.00;99.90;;;;;;5073176;28;20254;-77
2022/09/10 13:30:17;;;;;;;;;;;19.00;99.90;;;;;;5073121;28;19923;-76
2022/09/10 13:32:47;;;;;;;;;;;19.00;99.90;;;;;;5072558;28;19961;-77
2022/09/10 13:35:16;;;;;;;;;;;19.10;99.90;;;;;;5073089;28;20005;-77
2022/09/10 13:37:50;;;;;;;;;;;19.10;99.90;;;;;;5072453;28;19912;-77
2022/09/10 13:40:28;;;;;;;;;;;19.00;99.90;;;;;;5073145;28;19916;-77
2022/09/10 13:43:14;;;;;;;;;;;19.10;99.90;;;;;;5072343;28;19915;-77
2022/09/10 13:45:40;;;;;;;;;;;19.10;99.90;;;;;;5072269;28;20223;-77
2022/09/10 13:48:09;;;;;;;;;;;19.10;99.90;;;;;;5072325;28;19917;-77
2022/09/10 13:51:00;;;;;;;;;;;19.10;99.90;;;;;;5072656;28;19918;-77
2022/09/10 13:53:27;;;;;;;;;;;19.10;99.90;;;;;;5062288;28;19908;-76
2022/09/10 13:56:00;;;;;;;;;;;19.10;99.90;;;;;;5071676;28;19909;-77
2022/09/10 13:58:29;;;;;;;;;;;19.00;99.90;;;;;;5071881;28;19994;-77
2022/09/10 14:00:56;;;;;;;;;;;19.00;99.90;;;;;;5072837;28;19909;-77
2022/09/10 14:03:24;;;;;;;;;;;19.10;99.90;;;;;;5072203;28;19969;-76
2022/09/10 14:05:52;;;;;;;;;;;19.20;99.90;;;;;;5075643;28;19952;-77
2022/09/10 14:08:20;;;;;;;;;;;19.20;99.90;;;;;;5075531;28;19912;-77
2022/09/10 14:10:51;;;;;;;;;;;19.30;99.90;;;;;;5076728;28;20348;-76
2022/09/10 14:13:19;;;;;;;;;;;19.30;99.90;;;;;;5077032;28;20001;-77
2022/09/10 14:15:45;;;;;;;;;;;19.30;99.90;;;;;;5076258;28;20074;-77
2022/09/10 14:18:11;;;;;;;;;;;19.40;99.90;;;;;;5076820;28;19916;-77
2022/09/10 14:20:38;;;;;;;;;;;19.30;99.90;;;;;;5076201;28;19915;-77
2022/09/10 14:23:11;;;;;;;;;;;19.40;99.90;;;;;;5076461;28;20042;-77
2022/09/10 14:25:38;;;;;;;;;;;19.40;99.90;;;;;;5076488;28;19915;-78
2022/09/10 14:28:30;;;;;;;;;;;19.40;99.90;;;;;;5076523;28;19913;-77
2022/09/10 14:31:32;;;;;;;;;;;19.10;99.90;;;;;;5076274;28;19913;-77